Time;durP1;ratioP1;P1;durP2;ratioP2;P2;SDS_P1;SDS_P2;PMS_P1;PMS_P2;Temp;Humidity;BMP_temperature;BMP_pressure;BME280_temperature;BME280_humidity;BME280_pressure;Samples;Min_cycle;Max_cycle;Signal;HPM_P1;HPM_P2
2023/12/19 00:00:25;;;;;;;;;;;0.50;99.90;;;;;;5009673;28;20034;-71
2023/12/19 00:02:51;;;;;;;;;;;0.60;99.90;;;;;;4997082;28;20046;-71
2023/12/19 00:05:16;;;;;;;;;;;0.60;99.90;;;;;;5006835;28;19972;-71
2023/12/19 00:07:42;;;;;;;;;;;0.60;99.90;;;;;;5015300;28;19965;-71
2023/12/19 00:10:08;;;;;;;;;;;0.70;99.90;;;;;;5008174;28;19998;-72
2023/12/19 00:12:33;;;;;;;;;;;0.60;99.90;;;;;;5011080;28;19956;-72
2023/12/19 00:14:59;;;;;;;;;;;0.60;99.90;;;;;;5014759;28;19948;-64
2023/12/19 00:17:24;;;;;;;;;;;0.60;99.90;;;;;;5018618;28;20494;-64
2023/12/19 00:19:50;;;;;;;;;;;0.60;99.90;;;;;;5011158;28;19948;-64
2023/12/19 00:22:15;;;;;;;;;;;0.60;99.90;;;;;;5014437;28;19954;-64
2023/12/19 00:24:41;;;;;;;;;;;0.60;99.90;;;;;;5013798;28;20097;-64
2023/12/19 00:27:06;;;;;;;;;;;0.60;99.90;;;;;;5018326;28;20012;-64
2023/12/19 00:29:32;;;;;;;;;;;0.60;99.90;;;;;;5017140;28;19939;-64
2023/12/19 00:31:57;;;;;;;;;;;0.60;99.90;;;;;;5020465;28;19954;-73
2023/12/19 00:34:23;;;;;;;;;;;0.60;99.90;;;;;;5017581;28;19992;-72
2023/12/19 00:36:48;;;;;;;;;;;0.70;99.90;;;;;;5011268;28;19944;-72
2023/12/19 00:39:13;;;;;;;;;;;0.70;99.90;;;;;;5015858;28;19941;-72
2023/12/19 00:41:39;;;;;;;;;;;0.70;99.90;;;;;;5017583;28;19940;-71
2023/12/19 00:44:05;;;;;;;;;;;0.70;99.90;;;;;;5010201;28;19943;-70
2023/12/19 00:46:30;;;;;;;;;;;0.80;99.90;;;;;;5016783;28;19964;-70
2023/12/19 00:48:56;;;;;;;;;;;0.80;99.90;;;;;;5017310;28;20012;-71
2023/12/19 00:51:21;;;;;;;;;;;0.80;99.90;;;;;;5014830;28;19970;-70
2023/12/19 00:53:47;;;;;;;;;;;0.90;99.90;;;;;;5012359;28;20470;-69
2023/12/19 00:56:12;;;;;;;;;;;0.90;99.90;;;;;;5015657;28;20493;-73
2023/12/19 00:58:38;;;;;;;;;;;0.90;99.90;;;;;;5014315;28;19942;-72
2023/12/19 01:01:05;;;;;;;;;;;0.90;99.90;;;;;;5012785;28;19951;-70
2023/12/19 01:03:31;;;;;;;;;;;0.80;99.90;;;;;;5012966;28;19948;-71
2023/12/19 01:05:56;;;;;;;;;;;0.80;99.90;;;;;;5001769;28;19984;-71
2023/12/19 01:08:22;;;;;;;;;;;0.80;99.90;;;;;;5006470;28;22344;-71
2023/12/19 01:10:48;;;;;;;;;;;0.80;99.90;;;;;;5002889;28;20557;-71
2023/12/19 01:13:13;;;;;;;;;;;0.70;99.90;;;;;;5008516;28;20089;-71
2023/12/19 01:15:38;;;;;;;;;;;0.70;99.90;;;;;;5005011;28;20000;-72
2023/12/19 01:18:04;;;;;;;;;;;0.80;99.90;;;;;;5007740;28;19956;-72
2023/12/19 01:20:29;;;;;;;;;;;0.70;99.90;;;;;;5007682;28;19950;-72
2023/12/19 01:22:55;;;;;;;;;;;0.70;99.90;;;;;;5008431;28;20750;-71
2023/12/19 01:25:20;;;;;;;;;;;0.70;99.90;;;;;;5002009;28;19946;-73
2023/12/19 01:27:46;;;;;;;;;;;0.60;99.90;;;;;;5006688;28;20393;-64
2023/12/19 01:30:11;;;;;;;;;;;0.60;99.90;;;;;;5003208;28;19964;-72
2023/12/19 01:32:37;;;;;;;;;;;0.60;99.90;;;;;;5004136;28;22366;-72
2023/12/19 01:35:03;;;;;;;;;;;0.60;99.90;;;;;;5005686;28;19947;-71
2023/12/19 01:37:28;;;;;;;;;;;0.60;99.90;;;;;;5006975;28;19941;-73
2023/12/19 01:39:53;;;;;;;;;;;0.60;99.90;;;;;;5007201;28;19948;-72
2023/12/19 01:42:19;;;;;;;;;;;0.50;99.90;;;;;;5007287;28;19991;-72
2023/12/19 01:44:50;;;;;;;;;;;0.50;99.90;;;;;;5001536;28;19950;-72
2023/12/19 01:47:16;;;;;;;;;;;0.60;99.90;;;;;;5010332;28;20073;-72
2023/12/19 01:49:41;;;;;;;;;;;0.60;99.90;;;;;;5005589;28;19952;-72
2023/12/19 01:52:07;;;;;;;;;;;0.60;99.90;;;;;;5002912;28;20343;-72
2023/12/19 01:54:33;;;;;;;;;;;0.50;99.90;;;;;;5005198;28;19983;-72
2023/12/19 01:56:58;;;;;;;;;;;0.50;99.90;;;;;;5006328;28;19997;-72
2023/12/19 01:59:24;;;;;;;;;;;0.50;99.90;;;;;;5011071;28;19997;-73
2023/12/19 02:01:50;;;;;;;;;;;0.50;99.90;;;;;;5006118;28;19963;-73
2023/12/19 02:04:15;;;;;;;;;;;0.60;99.90;;;;;;5006760;28;19941;-72
2023/12/19 02:06:41;;;;;;;;;;;0.60;99.90;;;;;;5004651;28;19980;-64
2023/12/19 02:09:07;;;;;;;;;;;0.70;99.90;;;;;;5005100;28;19955;-64
2023/12/19 02:11:32;;;;;;;;;;;0.70;99.90;;;;;;5035916;28;20027;-64
2023/12/19 02:13:58;;;;;;;;;;;0.70;99.90;;;;;;5005992;28;19951;-64
2023/12/19 02:16:26;;;;;;;;;;;0.70;99.90;;;;;;5006347;28;19953;-64
2023/12/19 02:19:04;;;;;;;;;;;0.70;99.90;;;;;;5010220;28;19962;-64
2023/12/19 02:21:29;;;;;;;;;;;0.60;99.90;;;;;;5004865;28;20032;-64
2023/12/19 02:23:55;;;;;;;;;;;0.50;99.90;;;;;;5006018;28;19951;-72
2023/12/19 02:26:21;;;;;;;;;;;0.50;99.90;;;;;;5006659;28;20436;-72
2023/12/19 02:28:52;;;;;;;;;;;0.40;99.90;;;;;;5000700;28;20311;-72
2023/12/19 02:31:17;;;;;;;;;;;0.40;99.90;;;;;;5007400;28;19969;-72
2023/12/19 02:33:43;;;;;;;;;;;0.40;99.90;;;;;;5003733;28;19945;-72
2023/12/19 02:36:08;;;;;;;;;;;0.50;99.90;;;;;;4999752;28;20016;-72
2023/12/19 02:38:34;;;;;;;;;;;0.50;99.90;;;;;;5006125;28;19984;-72
2023/12/19 02:40:59;;;;;;;;;;;0.40;99.90;;;;;;5000298;28;19968;-64
2023/12/19 02:43:25;;;;;;;;;;;0.50;99.90;;;;;;5040225;28;19946;-65
2023/12/19 02:45:50;;;;;;;;;;;0.50;99.90;;;;;;5006787;28;20485;-64
2023/12/19 02:48:16;;;;;;;;;;;0.60;99.90;;;;;;5007897;28;19944;-64
2023/12/19 02:50:41;;;;;;;;;;;0.70;99.90;;;;;;5030438;28;19963;-65
2023/12/19 02:53:07;;;;;;;;;;;0.70;99.90;;;;;;5005507;28;20514;-65
2023/12/19 02:55:32;;;;;;;;;;;0.70;99.90;;;;;;5012601;28;19937;-64
2023/12/19 02:57:58;;;;;;;;;;;0.70;99.90;;;;;;5012189;28;19994;-63
2023/12/19 03:00:24;;;;;;;;;;;0.70;99.90;;;;;;5011395;28;19981;-64
2023/12/19 03:02:50;;;;;;;;;;;0.70;99.90;;;;;;5011153;28;20495;-65
2023/12/19 03:05:15;;;;;;;;;;;0.60;99.90;;;;;;5009171;28;20031;-65
2023/12/19 03:07:41;;;;;;;;;;;0.60;99.90;;;;;;5017808;28;19939;-65
2023/12/19 03:10:08;;;;;;;;;;;0.60;99.90;;;;;;5008200;28;20377;-65
2023/12/19 03:12:34;;;;;;;;;;;0.60;99.90;;;;;;5016222;28;19958;-64
2023/12/19 03:14:59;;;;;;;;;;;0.60;99.90;;;;;;5011372;28;20257;-65
2023/12/19 03:17:25;;;;;;;;;;;0.60;99.90;;;;;;5016998;28;20575;-71
2023/12/19 03:19:50;;;;;;;;;;;0.70;99.90;;;;;;5012752;28;19948;-64
2023/12/19 03:22:16;;;;;;;;;;;0.70;99.90;;;;;;5010437;28;20024;-64
2023/12/19 03:24:41;;;;;;;;;;;0.80;99.90;;;;;;5010172;28;19968;-65
2023/12/19 03:27:06;;;;;;;;;;;0.80;99.90;;;;;;5010698;28;19950;-65
2023/12/19 03:29:32;;;;;;;;;;;0.80;99.90;;;;;;5011126;28;19945;-64
2023/12/19 03:31:58;;;;;;;;;;;0.80;99.90;;;;;;5014196;28;20329;-64
2023/12/19 03:34:24;;;;;;;;;;;0.70;99.90;;;;;;5006458;28;19938;-64
2023/12/19 03:36:49;;;;;;;;;;;0.50;99.90;;;;;;5007847;28;19938;-65
2023/12/19 03:39:15;;;;;;;;;;;0.50;99.90;;;;;;5007238;28;20481;-72
2023/12/19 03:41:40;;;;;;;;;;;0.50;99.90;;;;;;5012580;28;19962;-72
2023/12/19 03:44:06;;;;;;;;;;;0.50;99.90;;;;;;5007359;28;20414;-73
2023/12/19 03:46:31;;;;;;;;;;;0.50;99.90;;;;;;5009908;28;19944;-72
2023/12/19 03:48:57;;;;;;;;;;;0.60;99.90;;;;;;5013065;28;20987;-72
2023/12/19 03:51:22;;;;;;;;;;;0.60;99.90;;;;;;5011960;28;19975;-72
2023/12/19 03:53:48;;;;;;;;;;;0.60;99.90;;;;;;5010352;28;19944;-72
2023/12/19 03:56:13;;;;;;;;;;;0.70;99.90;;;;;;5016389;28;19987;-72
2023/12/19 03:58:42;;;;;;;;;;;0.70;99.90;;;;;;5016690;28;20100;-72
2023/12/19 04:01:07;;;;;;;;;;;0.60;99.90;;;;;;5016644;28;19941;-72
2023/12/19 04:03:33;;;;;;;;;;;0.70;99.90;;;;;;5012745;28;19968;-72
2023/12/19 04:05:58;;;;;;;;;;;0.70;99.90;;;;;;5012794;28;19977;-72
2023/12/19 04:08:24;;;;;;;;;;;0.70;99.90;;;;;;5013821;28;19945;-72
2023/12/19 04:10:49;;;;;;;;;;;0.70;99.90;;;;;;5012689;28;19993;-71
2023/12/19 04:13:15;;;;;;;;;;;0.70;99.90;;;;;;5007145;28;19962;-72
2023/12/19 04:15:40;;;;;;;;;;;0.70;99.90;;;;;;5018208;28;19944;-64
2023/12/19 04:18:05;;;;;;;;;;;0.70;99.90;;;;;;5012991;28;19940;-64
2023/12/19 04:20:31;;;;;;;;;;;0.70;99.90;;;;;;5012380;28;20147;-65
2023/12/19 04:22:56;;;;;;;;;;;0.60;99.90;;;;;;5015149;28;20066;-64
2023/12/19 04:25:22;;;;;;;;;;;0.60;99.90;;;;;;5017467;28;19952;-64
2023/12/19 04:27:48;;;;;;;;;;;0.60;99.90;;;;;;5013604;28;19947;-65
2023/12/19 04:30:13;;;;;;;;;;;0.60;99.90;;;;;;5010291;28;21648;-64
2023/12/19 04:32:39;;;;;;;;;;;0.40;99.90;;;;;;5013325;28;20170;-72
2023/12/19 04:35:04;;;;;;;;;;;0.30;99.90;;;;;;5017123;28;19976;-72
2023/12/19 04:37:30;;;;;;;;;;;0.30;99.90;;;;;;5010963;28;20484;-72
2023/12/19 04:39:57;;;;;;;;;;;0.30;99.90;;;;;;5012709;28;19997;-72
2023/12/19 04:42:23;;;;;;;;;;;0.30;99.90;;;;;;5015093;28;19977;-72
2023/12/19 04:44:48;;;;;;;;;;;0.20;99.90;;;;;;5013555;28;20039;-72
2023/12/19 04:47:14;;;;;;;;;;;0.10;99.90;;;;;;5015162;28;19945;-72
2023/12/19 04:49:40;;;;;;;;;;;0.10;99.90;;;;;;5016643;28;19995;-64
2023/12/19 04:52:05;;;;;;;;;;;0.10;99.90;;;;;;5014245;28;20006;-65
2023/12/19 04:54:31;;;;;;;;;;;0.20;99.90;;;;;;5007041;28;20573;-65
2023/12/19 04:56:56;;;;;;;;;;;0.20;99.90;;;;;;5012174;28;19958;-65
2023/12/19 04:59:22;;;;;;;;;;;0.20;99.90;;;;;;5013034;28;20371;-65
2023/12/19 05:01:48;;;;;;;;;;;0.20;99.90;;;;;;5012230;28;19949;-65
2023/12/19 05:04:13;;;;;;;;;;;0.30;99.90;;;;;;5013603;28;20486;-65
2023/12/19 05:06:39;;;;;;;;;;;0.40;99.90;;;;;;5012656;28;19965;-65
2023/12/19 05:09:04;;;;;;;;;;;0.30;99.90;;;;;;5013364;28;19950;-72
2023/12/19 05:11:30;;;;;;;;;;;0.30;99.90;;;;;;5010238;28;19983;-65
2023/12/19 05:13:55;;;;;;;;;;;0.30;99.90;;;;;;5011610;28;20015;-65
2023/12/19 05:16:21;;;;;;;;;;;0.30;99.90;;;;;;5013358;28;19944;-65
2023/12/19 05:18:47;;;;;;;;;;;0.30;99.90;;;;;;5011798;28;19952;-65
2023/12/19 05:21:12;;;;;;;;;;;0.10;99.90;;;;;;5011476;28;19979;-65
2023/12/19 05:23:38;;;;;;;;;;;0.00;99.90;;;;;;5010582;28;20024;-65
2023/12/19 05:26:04;;;;;;;;;;;0.00;99.90;;;;;;5014178;28;19949;-64
2023/12/19 05:28:30;;;;;;;;;;;0.00;99.90;;;;;;5013274;28;20413;-72
2023/12/19 05:30:56;;;;;;;;;;;-0.20;99.90;;;;;;5012926;28;19967;-73
2023/12/19 05:33:25;;;;;;;;;;;-0.10;99.90;;;;;;5013389;28;20006;-72
2023/12/19 05:35:51;;;;;;;;;;;-0.10;99.90;;;;;;5016898;28;20042;-73
2023/12/19 05:38:20;;;;;;;;;;;-0.10;99.90;;;;;;5012115;28;19944;-73
2023/12/19 05:40:46;;;;;;;;;;;-0.20;99.90;;;;;;5011627;28;19983;-73
2023/12/19 05:43:14;;;;;;;;;;;-0.30;99.90;;;;;;5011147;28;19944;-73
2023/12/19 05:45:41;;;;;;;;;;;-0.30;99.90;;;;;;5013622;28;19951;-73
2023/12/19 05:48:07;;;;;;;;;;;-0.10;99.90;;;;;;5012064;28;19958;-64
2023/12/19 05:50:32;;;;;;;;;;;-0.10;99.90;;;;;;5012344;28;19967;-64
2023/12/19 05:52:58;;;;;;;;;;;0.00;99.90;;;;;;5038744;28;20547;-64
2023/12/19 05:55:23;;;;;;;;;;;0.00;99.90;;;;;;5011951;28;20107;-64
2023/12/19 05:57:49;;;;;;;;;;;0.00;99.90;;;;;;5008670;28;19936;-64
2023/12/19 06:00:15;;;;;;;;;;;0.10;99.90;;;;;;5012085;28;20337;-65
2023/12/19 06:02:41;;;;;;;;;;;0.10;99.90;;;;;;5010274;28;19995;-64
2023/12/19 06:05:07;;;;;;;;;;;0.10;99.90;;;;;;5014501;28;20065;-63
2023/12/19 06:07:34;;;;;;;;;;;0.10;99.90;;;;;;5005719;28;20045;-63
2023/12/19 06:10:00;;;;;;;;;;;0.20;99.90;;;;;;5011070;28;19948;-64
2023/12/19 06:12:25;;;;;;;;;;;0.30;99.90;;;;;;4999725;28;20324;-65
2023/12/19 06:14:51;;;;;;;;;;;0.40;99.90;;;;;;5003049;28;19941;-64
2023/12/19 06:17:16;;;;;;;;;;;0.30;99.90;;;;;;5004408;28;20389;-64
2023/12/19 06:19:42;;;;;;;;;;;0.30;99.90;;;;;;5006596;28;20002;-65
2023/12/19 06:22:08;;;;;;;;;;;0.40;99.90;;;;;;5006934;28;19993;-64
2023/12/19 06:24:33;;;;;;;;;;;0.40;99.90;;;;;;5001569;28;20418;-74
2023/12/19 06:26:59;;;;;;;;;;;0.30;99.90;;;;;;5004717;28;19942;-74
2023/12/19 06:29:25;;;;;;;;;;;0.40;99.90;;;;;;4996581;28;19952;-75
2023/12/19 06:31:51;;;;;;;;;;;0.30;99.90;;;;;;5005441;28;20530;-74
2023/12/19 06:34:17;;;;;;;;;;;0.30;99.90;;;;;;5003276;28;20528;-74
2023/12/19 06:36:42;;;;;;;;;;;0.30;99.90;;;;;;5002746;28;19948;-74
2023/12/19 06:39:08;;;;;;;;;;;0.20;99.90;;;;;;5001127;28;19961;-73
2023/12/19 06:41:34;;;;;;;;;;;0.20;99.90;;;;;;5003527;28;20119;-63
2023/12/19 06:44:00;;;;;;;;;;;0.20;99.90;;;;;;4991153;28;20437;-65
2023/12/19 06:46:25;;;;;;;;;;;0.30;99.90;;;;;;5003480;28;19977;-65
2023/12/19 06:48:51;;;;;;;;;;;0.10;99.90;;;;;;5011274;28;19942;-65
2023/12/19 06:51:26;;;;;;;;;;;0.00;99.90;;;;;;5012023;28;19975;-65
2023/12/19 06:53:52;;;;;;;;;;;0.00;99.90;;;;;;5014622;28;19977;-65
2023/12/19 06:56:18;;;;;;;;;;;0.00;99.90;;;;;;5010249;28;20738;-64
2023/12/19 06:58:43;;;;;;;;;;;0.00;99.90;;;;;;5016426;28;19968;-65
2023/12/19 07:01:09;;;;;;;;;;;0.00;99.90;;;;;;5002867;28;19938;-76
2023/12/19 07:03:35;;;;;;;;;;;0.00;99.90;;;;;;5013943;28;20299;-76
2023/12/19 07:06:00;;;;;;;;;;;0.00;99.90;;;;;;5007824;28;19966;-76
2023/12/19 07:08:26;;;;;;;;;;;0.10;99.90;;;;;;5014160;28;19988;-76
2023/12/19 07:10:52;;;;;;;;;;;0.10;99.90;;;;;;5011345;28;19964;-79
2023/12/19 07:13:17;;;;;;;;;;;0.10;99.90;;;;;;5011485;28;20077;-76
2023/12/19 07:15:43;;;;;;;;;;;0.00;99.90;;;;;;5007031;28;20506;-76
2023/12/19 07:18:08;;;;;;;;;;;0.00;99.90;;;;;;5014793;28;19991;-65
2023/12/19 07:20:34;;;;;;;;;;;0.10;99.90;;;;;;5017523;28;20326;-65
2023/12/19 07:22:59;;;;;;;;;;;0.10;99.90;;;;;;5009399;28;20181;-64
2023/12/19 07:25:26;;;;;;;;;;;0.10;99.90;;;;;;5002147;28;19939;-65
2023/12/19 07:27:51;;;;;;;;;;;0.20;99.90;;;;;;5009320;28;20324;-65
2023/12/19 07:30:17;;;;;;;;;;;0.20;99.90;;;;;;5012175;28;20725;-65
2023/12/19 07:32:42;;;;;;;;;;;0.20;99.90;;;;;;5017353;28;19946;-65
2023/12/19 07:35:09;;;;;;;;;;;0.20;99.90;;;;;;5010482;28;20269;-76
2023/12/19 07:37:36;;;;;;;;;;;0.30;99.90;;;;;;5020097;28;19949;-65
2023/12/19 07:40:02;;;;;;;;;;;0.40;99.90;;;;;;5009336;28;19958;-65
2023/12/19 07:42:27;;;;;;;;;;;0.40;99.90;;;;;;5010772;28;20295;-64
2023/12/19 07:44:53;;;;;;;;;;;0.50;99.90;;;;;;5010481;28;19950;-65
2023/12/19 07:47:18;;;;;;;;;;;0.50;99.90;;;;;;5012564;28;19981;-65
2023/12/19 07:49:43;;;;;;;;;;;0.60;99.90;;;;;;5014848;28;19961;-64
2023/12/19 07:52:09;;;;;;;;;;;0.60;99.90;;;;;;5011582;28;20404;-65
2023/12/19 07:54:36;;;;;;;;;;;0.50;99.90;;;;;;5028088;28;19941;-71
2023/12/19 07:57:01;;;;;;;;;;;0.50;99.90;;;;;;5007696;28;19943;-65
2023/12/19 07:59:27;;;;;;;;;;;0.40;99.90;;;;;;4997782;28;19955;-65
2023/12/19 08:01:53;;;;;;;;;;;0.30;99.90;;;;;;5013662;28;19948;-65
2023/12/19 08:04:18;;;;;;;;;;;0.40;99.90;;;;;;5010694;28;19952;-65
2023/12/19 08:06:44;;;;;;;;;;;0.30;99.90;;;;;;5003186;28;20487;-65
2023/12/19 08:09:11;;;;;;;;;;;0.40;99.90;;;;;;5005148;28;19967;-65
2023/12/19 08:11:37;;;;;;;;;;;0.30;99.90;;;;;;5011839;28;19976;-65
2023/12/19 08:14:02;;;;;;;;;;;0.40;99.90;;;;;;5006565;28;19963;-65
2023/12/19 08:16:28;;;;;;;;;;;0.40;99.90;;;;;;4999269;28;20057;-65
2023/12/19 08:18:53;;;;;;;;;;;0.40;99.90;;;;;;5014483;28;19936;-65
2023/12/19 08:21:19;;;;;;;;;;;0.50;99.90;;;;;;5006597;28;19952;-65
2023/12/19 08:23:46;;;;;;;;;;;0.60;99.90;;;;;;5008520;28;20056;-65
2023/12/19 08:26:12;;;;;;;;;;;0.60;99.90;;;;;;5013761;28;20384;-65
2023/12/19 08:28:38;;;;;;;;;;;0.60;99.90;;;;;;5021096;28;19999;-65
2023/12/19 08:31:03;;;;;;;;;;;0.60;99.90;;;;;;5015795;28;19965;-65
2023/12/19 08:33:29;;;;;;;;;;;0.60;99.90;;;;;;5017612;28;19942;-65
2023/12/19 08:35:54;;;;;;;;;;;0.70;99.90;;;;;;5020234;28;20404;-65
2023/12/19 08:38:20;;;;;;;;;;;0.70;99.90;;;;;;5022178;28;19944;-64
2023/12/19 08:40:45;;;;;;;;;;;0.80;99.90;;;;;;5021140;28;19943;-65
2023/12/19 08:43:11;;;;;;;;;;;0.90;99.90;;;;;;5015480;28;20042;-65
2023/12/19 08:45:37;;;;;;;;;;;0.90;99.90;;;;;;5024101;28;20033;-64
2023/12/19 08:48:04;;;;;;;;;;;0.90;99.90;;;;;;5020758;28;19942;-64
2023/12/19 08:50:30;;;;;;;;;;;0.80;99.90;;;;;;5014313;28;19979;-76
2023/12/19 08:52:56;;;;;;;;;;;0.80;99.90;;;;;;5017256;28;20465;-76
2023/12/19 08:55:22;;;;;;;;;;;0.70;99.90;;;;;;5018125;28;19947;-75
2023/12/19 08:57:48;;;;;;;;;;;0.70;99.90;;;;;;5020030;28;20401;-76
2023/12/19 09:00:19;;;;;;;;;;;0.80;99.90;;;;;;5020180;28;20112;-75
2023/12/19 09:02:46;;;;;;;;;;;0.80;99.90;;;;;;5036358;28;20594;-75
2023/12/19 09:05:12;;;;;;;;;;;0.80;99.90;;;;;;5024179;28;20012;-75
2023/12/19 09:07:38;;;;;;;;;;;0.80;99.90;;;;;;5018173;28;19957;-74
2023/12/19 09:10:05;;;;;;;;;;;0.80;99.90;;;;;;5017027;28;19946;-75
2023/12/19 09:12:31;;;;;;;;;;;0.80;99.90;;;;;;5019127;28;20021;-74
2023/12/19 09:14:56;;;;;;;;;;;0.70;99.90;;;;;;5023368;28;20084;-74
2023/12/19 09:17:22;;;;;;;;;;;0.70;99.90;;;;;;5018210;28;20715;-74
2023/12/19 09:19:47;;;;;;;;;;;0.70;99.90;;;;;;5003028;28;19981;-74
2023/12/19 09:22:13;;;;;;;;;;;0.70;99.90;;;;;;5010407;28;20010;-74
2023/12/19 09:24:38;;;;;;;;;;;0.70;99.90;;;;;;5015038;28;20331;-74
2023/12/19 09:27:04;;;;;;;;;;;0.70;99.90;;;;;;5012754;28;19943;-75
2023/12/19 09:29:30;;;;;;;;;;;0.70;99.90;;;;;;5021471;28;19966;-74
2023/12/19 09:31:56;;;;;;;;;;;0.80;99.90;;;;;;5012334;28;20083;-74
2023/12/19 09:34:21;;;;;;;;;;;0.80;99.90;;;;;;5021139;28;20375;-74
2023/12/19 09:36:47;;;;;;;;;;;0.80;99.90;;;;;;5019026;28;20033;-74
2023/12/19 09:39:14;;;;;;;;;;;0.80;99.90;;;;;;5025725;28;19945;-74
2023/12/19 09:41:45;;;;;;;;;;;0.90;99.90;;;;;;5020447;28;19982;-74
2023/12/19 09:44:10;;;;;;;;;;;0.90;99.90;;;;;;5015643;28;19940;-64
2023/12/19 09:46:36;;;;;;;;;;;0.80;99.90;;;;;;5013977;28;20503;-74
2023/12/19 09:49:02;;;;;;;;;;;0.70;99.90;;;;;;5017200;28;19966;-73
2023/12/19 09:51:32;;;;;;;;;;;0.70;99.90;;;;;;5015265;28;20049;-74
2023/12/19 09:54:01;;;;;;;;;;;0.70;99.90;;;;;;5004575;28;20059;-74
2023/12/19 09:56:27;;;;;;;;;;;0.70;99.90;;;;;;5009929;28;19981;-74
2023/12/19 09:58:56;;;;;;;;;;;0.80;99.90;;;;;;5014193;28;20409;-73
2023/12/19 10:01:21;;;;;;;;;;;1.00;99.90;;;;;;5017688;28;19936;-74
2023/12/19 10:03:49;;;;;;;;;;;0.90;99.90;;;;;;5008875;28;20285;-65
2023/12/19 10:06:18;;;;;;;;;;;0.70;99.90;;;;;;5017862;28;20003;-64
2023/12/19 10:08:44;;;;;;;;;;;0.60;99.90;;;;;;5015079;28;20520;-64
2023/12/19 10:11:21;;;;;;;;;;;0.60;99.90;;;;;;5017770;28;20078;-65
2023/12/19 10:13:47;;;;;;;;;;;0.60;99.90;;;;;;5014995;28;20376;-64
2023/12/19 10:16:12;;;;;;;;;;;0.60;99.90;;;;;;5017617;28;19948;-64
2023/12/19 10:18:39;;;;;;;;;;;0.60;99.90;;;;;;5018230;28;19948;-65
2023/12/19 10:21:09;;;;;;;;;;;0.60;99.90;;;;;;5022629;28;20036;-64
2023/12/19 10:23:35;;;;;;;;;;;0.60;99.90;;;;;;5009783;28;19962;-64
2023/12/19 10:26:01;;;;;;;;;;;0.60;99.90;;;;;;5016762;28;20123;-64
2023/12/19 10:28:26;;;;;;;;;;;0.60;99.90;;;;;;5029300;28;20343;-64
2023/12/19 10:31:20;;;;;;;;;;;0.60;99.90;;;;;;5017087;28;20079;-64
2023/12/19 10:33:46;;;;;;;;;;;0.50;99.90;;;;;;5016218;28;20126;-63
2023/12/19 10:36:25;;;;;;;;;;;0.50;99.90;;;;;;5019811;28;19975;-64
2023/12/19 10:38:51;;;;;;;;;;;0.60;99.90;;;;;;5020279;28;19941;-63
2023/12/19 10:41:22;;;;;;;;;;;0.60;99.90;;;;;;5017992;28;20043;-72
2023/12/19 10:43:49;;;;;;;;;;;0.60;99.90;;;;;;5015044;28;19970;-73
2023/12/19 10:46:16;;;;;;;;;;;0.70;99.90;;;;;;5015726;28;19970;-74
2023/12/19 10:48:41;;;;;;;;;;;0.60;99.90;;;;;;5013861;28;19948;-73
2023/12/19 10:51:08;;;;;;;;;;;0.50;99.90;;;;;;5019246;28;20518;-74
2023/12/19 10:53:34;;;;;;;;;;;0.50;99.90;;;;;;5011575;28;19979;-73
2023/12/19 10:56:00;;;;;;;;;;;0.50;99.90;;;;;;5018473;28;19987;-74
2023/12/19 10:58:25;;;;;;;;;;;0.40;99.90;;;;;;5016818;28;20102;-74
2023/12/19 11:00:51;;;;;;;;;;;0.50;99.90;;;;;;5016856;28;19942;-64
2023/12/19 11:03:23;;;;;;;;;;;0.70;99.90;;;;;;5012235;28;19948;-64
2023/12/19 11:05:50;;;;;;;;;;;0.70;99.90;;;;;;5019181;28;20028;-63
2023/12/19 11:08:17;;;;;;;;;;;0.70;99.90;;;;;;5017936;28;19978;-64
2023/12/19 11:11:03;;;;;;;;;;;0.80;99.90;;;;;;5013153;28;20055;-63
2023/12/19 11:13:29;;;;;;;;;;;0.80;99.90;;;;;;5015800;28;20416;-63
2023/12/19 11:15:59;;;;;;;;;;;0.70;99.90;;;;;;5009583;28;19956;-63
2023/12/19 11:18:32;;;;;;;;;;;0.80;99.90;;;;;;5018695;28;20728;-73
2023/12/19 11:21:05;;;;;;;;;;;0.90;99.90;;;;;;5015619;28;20005;-73
2023/12/19 11:23:49;;;;;;;;;;;1.00;99.90;;;;;;5019359;28;20042;-73
2023/12/19 11:26:15;;;;;;;;;;;0.90;99.90;;;;;;5018740;28;20363;-73
2023/12/19 11:28:40;;;;;;;;;;;0.90;99.90;;;;;;5013968;28;19998;-73
2023/12/19 11:31:25;;;;;;;;;;;0.80;99.90;;;;;;5013807;28;19964;-73
2023/12/19 11:33:50;;;;;;;;;;;0.50;99.90;;;;;;5017090;28;19945;-73
2023/12/19 11:36:16;;;;;;;;;;;0.60;99.90;;;;;;5017275;28;19948;-73
2023/12/19 11:38:41;;;;;;;;;;;0.70;99.90;;;;;;5022676;28;20425;-73
2023/12/19 11:41:07;;;;;;;;;;;0.80;99.90;;;;;;5019873;28;19945;-73
2023/12/19 11:43:35;;;;;;;;;;;0.80;99.90;;;;;;5017683;28;19952;-73
2023/12/19 11:46:03;;;;;;;;;;;0.90;99.90;;;;;;5018199;28;19953;-73
2023/12/19 11:48:44;;;;;;;;;;;1.00;99.90;;;;;;5017455;28;19991;-74
2023/12/19 11:51:11;;;;;;;;;;;1.00;99.90;;;;;;5022938;28;20016;-73
2023/12/19 11:53:37;;;;;;;;;;;1.10;99.90;;;;;;5019536;28;20048;-63
2023/12/19 11:56:10;;;;;;;;;;;1.20;99.90;;;;;;5019664;28;19992;-63
2023/12/19 11:58:36;;;;;;;;;;;1.20;99.90;;;;;;5014030;28;19955;-64
2023/12/19 12:01:02;;;;;;;;;;;1.10;99.90;;;;;;5022257;28;20006;-63
2023/12/19 12:03:28;;;;;;;;;;;1.10;99.90;;;;;;5015443;28;20356;-64
2023/12/19 12:05:54;;;;;;;;;;;1.10;99.90;;;;;;5020110;28;19979;-64
2023/12/19 12:08:20;;;;;;;;;;;1.10;99.90;;;;;;5025146;28;20043;-63
2023/12/19 12:10:59;;;;;;;;;;;1.00;99.90;;;;;;5018390;28;19964;-64
2023/12/19 12:13:25;;;;;;;;;;;1.10;99.90;;;;;;5017459;28;19944;-63
2023/12/19 12:15:54;;;;;;;;;;;1.10;99.90;;;;;;5009113;28;19953;-66
2023/12/19 12:18:19;;;;;;;;;;;1.00;99.90;;;;;;5020354;28;19951;-63
2023/12/19 12:20:45;;;;;;;;;;;0.90;99.90;;;;;;5015958;28;19937;-64
2023/12/19 12:23:10;;;;;;;;;;;0.90;99.90;;;;;;5016342;28;19962;-64
2023/12/19 12:25:36;;;;;;;;;;;0.90;99.90;;;;;;5019011;28;19958;-62
2023/12/19 12:28:05;;;;;;;;;;;1.00;99.90;;;;;;5014389;28;20711;-62
2023/12/19 12:30:33;;;;;;;;;;;1.10;99.90;;;;;;5023666;28;19965;-63
2023/12/19 12:33:00;;;;;;;;;;;1.10;99.90;;;;;;5014234;28;20637;-74
2023/12/19 12:35:28;;;;;;;;;;;1.10;99.90;;;;;;5016314;28;19990;-75
2023/12/19 12:37:58;;;;;;;;;;;1.10;99.90;;;;;;5020792;28;19952;-76
2023/12/19 12:40:23;;;;;;;;;;;1.00;99.90;;;;;;5035054;28;20424;-74
2023/12/19 12:42:49;;;;;;;;;;;0.90;99.90;;;;;;5015202;28;19943;-74
2023/12/19 12:45:15;;;;;;;;;;;0.90;99.90;;;;;;5024451;28;19978;-74
2023/12/19 12:47:42;;;;;;;;;;;0.90;99.90;;;;;;5017086;28;19943;-73
2023/12/19 12:50:07;;;;;;;;;;;0.90;99.90;;;;;;5017231;28;19935;-63
2023/12/19 12:52:33;;;;;;;;;;;1.00;99.90;;;;;;5010623;28;19967;-63
2023/12/19 12:55:02;;;;;;;;;;;0.90;99.90;;;;;;5022618;28;19947;-63
2023/12/19 12:57:28;;;;;;;;;;;1.00;99.90;;;;;;5014693;28;19935;-63
2023/12/19 12:59:54;;;;;;;;;;;0.90;99.90;;;;;;5017074;28;19942;-64
2023/12/19 13:02:19;;;;;;;;;;;0.90;99.90;;;;;;5012601;28;20431;-62
2023/12/19 13:04:45;;;;;;;;;;;1.00;99.90;;;;;;5006810;28;19962;-63
2023/12/19 13:07:10;;;;;;;;;;;0.90;99.90;;;;;;5005747;28;20126;-63
2023/12/19 13:09:36;;;;;;;;;;;0.90;99.90;;;;;;5008525;28;20030;-63
2023/12/19 13:12:02;;;;;;;;;;;0.90;99.90;;;;;;5007640;28;20086;-63
2023/12/19 13:14:27;;;;;;;;;;;1.00;99.90;;;;;;5006616;28;20401;-63
2023/12/19 13:16:53;;;;;;;;;;;1.10;99.90;;;;;;5007421;28;19947;-63
2023/12/19 13:19:18;;;;;;;;;;;1.10;99.90;;;;;;5022422;28;19941;-63
2023/12/19 13:21:44;;;;;;;;;;;1.00;99.90;;;;;;5006625;28;19944;-63
2023/12/19 13:24:09;;;;;;;;;;;1.00;99.90;;;;;;5006915;28;20351;-63
2023/12/19 13:26:35;;;;;;;;;;;0.90;99.90;;;;;;5009043;28;19971;-63
2023/12/19 13:29:03;;;;;;;;;;;0.80;99.90;;;;;;5006132;28;19945;-63
2023/12/19 13:31:31;;;;;;;;;;;0.90;99.90;;;;;;5009814;28;19972;-63
2023/12/19 13:33:57;;;;;;;;;;;0.80;99.90;;;;;;5011206;28;20544;-63
2023/12/19 13:36:23;;;;;;;;;;;0.90;99.90;;;;;;5017869;28;19971;-63
2023/12/19 13:38:48;;;;;;;;;;;1.00;99.90;;;;;;5021537;28;20610;-63
2023/12/19 13:41:17;;;;;;;;;;;1.00;99.90;;;;;;5018850;28;20060;-63
2023/12/19 13:43:43;;;;;;;;;;;1.00;99.90;;;;;;5010660;28;19953;-73
2023/12/19 13:46:09;;;;;;;;;;;1.00;99.90;;;;;;5016145;28;19946;-73
2023/12/19 13:48:34;;;;;;;;;;;1.00;99.90;;;;;;5021784;28;19966;-73
2023/12/19 13:51:00;;;;;;;;;;;1.00;99.90;;;;;;5015790;28;20495;-74
2023/12/19 13:53:26;;;;;;;;;;;1.00;99.90;;;;;;5015106;28;20345;-73
2023/12/19 13:55:52;;;;;;;;;;;1.00;99.90;;;;;;5021669;28;20038;-73
2023/12/19 13:58:17;;;;;;;;;;;1.00;99.90;;;;;;5009032;28;19947;-71
2023/12/19 14:00:43;;;;;;;;;;;1.10;99.90;;;;;;5018738;28;19978;-72
2023/12/19 14:03:10;;;;;;;;;;;1.10;99.90;;;;;;5011922;28;19941;-72
2023/12/19 14:05:35;;;;;;;;;;;1.00;99.90;;;;;;5020629;28;20099;-71
2023/12/19 14:08:01;;;;;;;;;;;1.00;99.90;;;;;;5004014;28;19946;-70
2023/12/19 14:10:27;;;;;;;;;;;0.90;99.90;;;;;;5005294;28;20446;-72
2023/12/19 14:12:52;;;;;;;;;;;0.90;99.90;;;;;;5015800;28;19968;-72
2023/12/19 14:15:19;;;;;;;;;;;1.00;99.90;;;;;;5013808;28;20006;-72
2023/12/19 14:17:45;;;;;;;;;;;0.90;99.90;;;;;;5013157;28;19959;-72
2023/12/19 14:20:14;;;;;;;;;;;0.90;99.90;;;;;;5016308;28;19957;-72
2023/12/19 14:22:40;;;;;;;;;;;1.00;99.90;;;;;;5007679;28;19953;-63